Time;durP1;ratioP1;P1;durP2;ratioP2;P2;SDS_P1;SDS_P2;PMS_P1;PMS_P2;Temp;Humidity;BMP_temperature;BMP_pressure;BME280_temperature;BME280_humidity;BME280_pressure;Samples;Min_cycle;Max_cycle;Signal;HPM_P1;HPM_P2
2024/01/26 00:00:40;;;;;;;15.70;4.15;;;;;;;4.42;60.36;95603.13;5059696;28;20044;-80
2024/01/26 00:03:06;;;;;;;17.67;3.63;;;;;;;4.34;60.50;95585.06;5041559;28;20044;-79
2024/01/26 00:05:31;;;;;;;21.02;4.18;;;;;;;4.34;60.33;95599.00;5056087;28;20058;-79
2024/01/26 00:07:57;;;;;;;14.50;4.10;;;;;;;4.21;59.68;95568.47;5041616;28;20067;-80
2024/01/26 00:10:22;;;;;;;10.10;3.35;;;;;;;4.04;60.03;95549.16;5043810;28;20043;-78
2024/01/26 00:12:48;;;;;;;11.45;4.03;;;;;;;4.35;59.73;95589.28;5067605;28;20048;-78
2024/01/26 00:15:14;;;;;;;12.85;3.83;;;;;;;4.17;59.98;95571.78;5039378;28;20044;-78
2024/01/26 00:17:40;;;;;;;17.88;3.47;;;;;;;4.27;59.54;95601.69;5073004;28;20037;-78
2024/01/26 00:20:06;;;;;;;10.45;3.85;;;;;;;3.87;60.29;95551.59;5031394;28;20083;-79
2024/01/26 00:22:32;;;;;;;14.65;3.80;;;;;;;4.37;59.90;95605.59;5089231;28;20036;-83
2024/01/26 00:24:57;;;;;;;12.63;3.25;;;;;;;4.27;59.76;95593.81;5076790;28;20055;-84
2024/01/26 00:27:23;;;;;;;23.92;4.38;;;;;;;4.00;60.04;95555.03;5077320;28;20072;-84
2024/01/26 00:29:48;;;;;;;17.42;4.03;;;;;;;4.21;59.84;95588.66;5096372;28;20036;-84
2024/01/26 00:32:14;;;;;;;20.35;4.35;;;;;;;3.91;60.43;95562.41;5076322;28;20051;-82
2024/01/26 00:34:40;;;;;;;10.65;3.72;;;;;;;4.10;60.20;95624.38;5078858;28;20523;-83
2024/01/26 00:37:05;;;;;;;11.65;4.43;;;;;;;3.17;60.72;95463.13;5094267;28;20043;-83
2024/01/26 00:39:31;;;;;;;11.02;4.07;;;;;;;4.17;60.86;95619.81;5094510;28;20063;-84
2024/01/26 00:41:56;;;;;;;15.15;3.28;;;;;;;3.92;60.71;95579.78;5076572;28;20040;-83
2024/01/26 00:44:22;;;;;;;17.88;4.18;;;;;;;4.16;60.61;95612.97;5092853;28;20069;-83
2024/01/26 00:46:47;;;;;;;10.77;3.63;;;;;;;4.01;60.96;95607.31;5072417;28;20044;-84
2024/01/26 00:49:13;;;;;;;16.00;4.05;;;;;;;3.98;60.25;95617.44;5092209;28;20047;-83
2024/01/26 00:51:38;;;;;;;10.82;3.53;;;;;;;3.56;60.80;95522.13;5077889;28;20071;-84
2024/01/26 00:54:04;;;;;;;10.23;3.75;;;;;;;3.75;60.16;95537.59;5076357;28;20040;-84
2024/01/26 00:56:30;;;;;;;11.52;3.58;;;;;;;3.53;60.71;95525.19;5094229;28;20040;-84
2024/01/26 00:58:56;;;;;;;9.32;2.92;;;;;;;4.19;60.53;95624.84;5093088;28;20070;-83
2024/01/26 01:01:22;;;;;;;15.40;3.42;;;;;;;3.83;60.26;95560.91;5093682;28;20032;-83
2024/01/26 01:03:48;;;;;;;14.55;3.97;;;;;;;3.50;60.45;95515.94;5072513;28;20033;-83
2024/01/26 01:06:14;;;;;;;18.10;3.85;;;;;;;3.75;60.43;95550.72;5107453;28;20051;-83
2024/01/26 01:08:40;;;;;;;14.98;3.47;;;;;;;3.72;60.87;95569.53;5091537;28;20036;-83
2024/01/26 01:11:06;;;;;;;14.98;3.67;;;;;;;3.98;60.58;95584.13;5094343;28;20027;-84
2024/01/26 01:13:31;;;;;;;16.35;3.22;;;;;;;3.82;60.74;95569.00;5072703;28;20051;-83
2024/01/26 01:15:57;;;;;;;13.68;3.17;;;;;;;4.02;60.37;95590.53;5091870;28;20044;-84
2024/01/26 01:18:22;;;;;;;18.13;3.63;;;;;;;3.63;60.65;95536.75;5090296;28;20044;-84
2024/01/26 01:20:48;;;;;;;10.88;2.70;;;;;;;3.01;60.29;95446.16;5093977;28;20077;-82
2024/01/26 01:23:15;;;;;;;5.28;2.55;;;;;;;3.44;60.89;95529.91;5076259;28;20047;-83
2024/01/26 01:25:41;;;;;;;15.30;2.88;;;;;;;3.44;60.31;95532.53;5091284;28;20047;-83
2024/01/26 01:28:06;;;;;;;14.10;3.08;;;;;;;3.46;60.67;95538.38;5093702;28;20059;-83
2024/01/26 01:30:32;;;;;;;13.00;3.08;;;;;;;2.98;60.63;95446.59;5092977;28;20040;-84
2024/01/26 01:32:58;;;;;;;12.60;2.67;;;;;;;3.74;60.63;95572.72;5076045;28;20112;-84
2024/01/26 01:35:23;;;;;;;10.63;2.72;;;;;;;3.72;60.29;95584.47;5073786;28;20078;-83
2024/01/26 01:37:49;;;;;;;10.52;2.60;;;;;;;3.60;60.60;95575.72;5077080;28;20036;-84
2024/01/26 01:40:14;;;;;;;11.90;2.53;;;;;;;3.43;60.54;95559.81;5093584;28;20070;-83
2024/01/26 01:42:41;;;;;;;7.70;2.33;;;;;;;3.43;60.77;95542.22;5076062;28;20039;-82
2024/01/26 01:45:12;;;;;;;8.23;2.50;;;;;;;3.36;61.03;95544.13;5073550;28;20055;-84
2024/01/26 01:47:38;;;;;;;21.40;3.17;;;;;;;3.64;61.10;95595.25;5074714;28;20036;-83
2024/01/26 01:50:03;;;;;;;11.77;2.50;;;;;;;3.51;60.97;95582.31;5092120;28;20097;-83
2024/01/26 01:52:29;;;;;;;9.35;2.78;;;;;;;3.50;61.51;95592.00;5073742;28;20050;-83
2024/01/26 01:54:55;;;;;;;11.05;2.72;;;;;;;3.16;61.15;95564.53;5091115;28;20032;-83
2024/01/26 01:57:20;;;;;;;9.63;2.80;;;;;;;3.58;61.74;95632.88;5064349;28;20589;-78
2024/01/26 01:59:46;;;;;;;10.68;2.70;;;;;;;2.56;61.65;95454.31;5074433;28;20516;-78
2024/01/26 02:02:12;;;;;;;19.42;3.65;;;;;;;3.53;61.70;95628.25;5074711;28;20043;-79
2024/01/26 02:04:37;;;;;;;9.50;2.30;;;;;;;3.29;61.68;95585.34;5074469;28;20035;-79
2024/01/26 02:07:03;;;;;;;10.35;3.22;;;;;;;3.43;62.21;95599.13;5074829;28;20483;-79
2024/01/26 02:09:29;;;;;;;10.35;2.92;;;;;;;3.42;61.87;95621.94;5057637;28;20032;-78
2024/01/26 02:11:55;;;;;;;14.65;3.00;;;;;;;3.12;61.64;95560.75;5073744;28;20036;-78
2024/01/26 02:14:21;;;;;;;19.02;4.00;;;;;;;3.13;61.25;95545.81;5074026;28;20095;-78
2024/01/26 02:16:56;;;;;;;11.15;3.63;;;;;;;3.64;61.55;95624.91;5057529;28;20044;-79
2024/01/26 02:19:22;;;;;;;14.68;3.08;;;;;;;3.13;61.84;95558.94;5059072;28;20044;-77
2024/01/26 02:21:47;;;;;;;11.73;2.80;;;;;;;3.12;61.56;95562.56;5016879;28;20040;-78
2024/01/26 02:24:13;;;;;;;15.90;3.00;;;;;;;3.68;61.14;95633.13;5009541;28;20179;-78
2024/01/26 02:26:39;;;;;;;13.57;2.58;;;;;;;3.33;61.30;95572.63;5037428;28;20473;-78
2024/01/26 02:29:05;;;;;;;13.75;3.00;;;;;;;3.68;61.47;95648.88;5052444;28;20044;-78
2024/01/26 02:31:30;;;;;;;11.43;3.42;;;;;;;3.67;61.09;95644.66;5092194;28;20126;-78
2024/01/26 02:33:56;;;;;;;14.77;2.72;;;;;;;3.21;60.87;95553.38;5056812;28;20080;-78
2024/01/26 02:36:21;;;;;;;14.82;3.13;;;;;;;3.74;60.70;95635.69;5057058;28;20189;-78
2024/01/26 02:38:47;;;;;;;14.48;3.00;;;;;;;3.75;60.45;95633.84;5057115;28;20436;-78
2024/01/26 02:41:12;;;;;;;9.70;2.70;;;;;;;3.46;60.15;95581.13;5057635;28;20427;-78
2024/01/26 02:43:39;;;;;;;18.42;3.08;;;;;;;3.79;60.26;95627.16;5057438;28;20036;-77
2024/01/26 02:46:10;;;;;;;18.40;2.10;;;;;;;3.57;60.33;95600.59;5056982;28;20044;-77
2024/01/26 02:48:36;;;;;;;10.27;2.58;;;;;;;3.67;60.12;95615.78;5066250;28;20101;-79
2024/01/26 02:51:02;;;;;;;11.30;2.67;;;;;;;3.30;60.24;95563.34;5051442;28;20490;-77
2024/01/26 02:53:27;;;;;;;14.70;2.70;;;;;;;3.31;60.28;95562.34;5057324;28;20032;-78
2024/01/26 02:55:53;;;;;;;9.65;2.25;;;;;;;3.21;60.34;95553.38;5068467;28;20082;-79
2024/01/26 02:58:19;;;;;;;16.10;2.95;;;;;;;3.34;60.18;95567.16;5056610;28;20037;-77
2024/01/26 03:00:44;;;;;;;8.60;2.60;;;;;;;3.81;60.01;95648.75;5060734;28;20044;-79
2024/01/26 03:03:10;;;;;;;13.82;2.60;;;;;;;3.82;60.33;95648.50;5053650;28;20037;-78
2024/01/26 03:05:35;;;;;;;9.38;3.03;;;;;;;2.88;60.10;95503.97;5032101;28;20123;-78
2024/01/26 03:08:01;;;;;;;11.65;2.25;;;;;;;3.71;60.06;95623.03;5039422;28;20029;-80
2024/01/26 03:10:27;;;;;;;8.52;2.63;;;;;;;3.37;60.07;95571.94;5040219;28;20072;-80
2024/01/26 03:12:52;;;;;;;7.22;2.17;;;;;;;3.73;59.90;95621.00;5058392;28;20122;-80
2024/01/26 03:15:18;;;;;;;9.13;2.40;;;;;;;3.77;60.27;95642.31;5039192;28;20040;-80
2024/01/26 03:17:44;;;;;;;12.43;3.33;;;;;;;3.85;60.39;95645.44;5054486;28;20037;-79
2024/01/26 03:20:09;;;;;;;18.55;4.03;;;;;;;3.82;60.54;95643.25;5059445;28;20462;-79
2024/01/26 03:22:35;;;;;;;14.15;2.92;;;;;;;3.66;61.14;95638.59;5078026;28;20529;-80
2024/01/26 03:25:01;;;;;;;10.88;2.75;;;;;;;3.58;60.72;95620.56;5052682;28;20543;-80
2024/01/26 03:27:27;;;;;;;13.32;2.58;;;;;;;3.59;61.04;95611.63;5055616;28;20048;-80
2024/01/26 03:29:53;;;;;;;15.40;3.50;;;;;;;3.75;61.09;95647.78;5037556;28;20043;-80
2024/01/26 03:32:19;;;;;;;11.05;3.20;;;;;;;3.76;61.16;95649.38;5044278;28;20064;-79
2024/01/26 03:34:44;;;;;;;8.48;3.10;;;;;;;3.75;61.25;95634.66;5061202;28;20032;-80
2024/01/26 03:37:10;;;;;;;8.77;2.88;;;;;;;3.54;61.04;95600.22;5060839;28;20468;-80
2024/01/26 03:39:35;;;;;;;12.45;2.65;;;;;;;3.78;61.01;95642.09;5044605;28;20036;-79
2024/01/26 03:42:01;;;;;;;9.23;3.50;;;;;;;3.64;61.41;95624.13;5051999;28;20036;-80
2024/01/26 03:44:27;;;;;;;17.70;3.25;;;;;;;3.07;60.85;95508.16;5042478;28;20048;-80
2024/01/26 03:46:53;;;;;;;9.93;2.38;;;;;;;3.78;61.15;95639.47;5061149;28;20097;-80
2024/01/26 03:49:18;;;;;;;12.25;2.90;;;;;;;3.26;61.40;95550.91;5059815;28;20044;-79
2024/01/26 03:51:44;;;;;;;7.18;2.45;;;;;;;3.84;61.01;95622.06;5052994;28;20036;-80
2024/01/26 03:54:09;;;;;;;19.70;3.28;;;;;;;3.84;61.46;95637.78;5060136;28;20094;-80
2024/01/26 03:56:35;;;;;;;10.45;2.83;;;;;;;3.66;61.15;95622.84;5077184;28;20123;-79
2024/01/26 03:59:01;;;;;;;10.52;3.33;;;;;;;3.59;61.06;95606.41;5060238;28;20064;-80
2024/01/26 04:01:26;;;;;;;13.20;2.70;;;;;;;3.69;61.13;95609.31;5059553;28;20409;-79
2024/01/26 04:03:52;;;;;;;13.90;3.17;;;;;;;3.25;61.20;95544.88;5042720;28;20496;-79
2024/01/26 04:06:18;;;;;;;19.83;3.55;;;;;;;3.64;61.18;95619.66;5058647;28;20099;-80
2024/01/26 04:08:44;;;;;;;12.73;2.78;;;;;;;3.58;61.47;95610.06;5076617;28;20032;-80
2024/01/26 04:11:09;;;;;;;14.40;3.50;;;;;;;3.20;61.00;95544.75;5043602;28;20580;-80
2024/01/26 04:13:35;;;;;;;14.55;3.08;;;;;;;3.67;60.86;95624.47;5040190;28;20055;-80
2024/01/26 04:16:00;;;;;;;14.48;2.80;;;;;;;3.59;60.17;95610.84;5054616;28;20063;-78
2024/01/26 04:18:26;;;;;;;9.57;2.50;;;;;;;3.82;60.52;95639.81;5057104;28;20047;-78
2024/01/26 04:20:51;;;;;;;8.30;2.35;;;;;;;3.36;60.43;95566.91;5058994;28;20472;-78
2024/01/26 04:23:17;;;;;;;11.00;3.08;;;;;;;3.59;60.52;95609.03;5042283;28;20508;-78
2024/01/26 04:25:43;;;;;;;11.05;3.15;;;;;;;3.50;60.29;95602.50;5047835;28;20127;-78
2024/01/26 04:28:09;;;;;;;20.80;3.88;;;;;;;3.62;59.78;95626.94;5054672;28;20044;-77
2024/01/26 04:30:35;;;;;;;16.88;3.00;;;;;;;3.89;60.41;95653.69;5058577;28;20047;-78
2024/01/26 04:33:01;;;;;;;15.02;3.35;;;;;;;3.72;60.38;95634.31;5058955;28;20431;-78
2024/01/26 04:35:26;;;;;;;7.72;2.20;;;;;;;3.82;60.19;95652.94;5058253;28;20509;-78
2024/01/26 04:37:52;;;;;;;11.90;2.97;;;;;;;3.32;60.20;95573.63;5074894;28;20101;-78
2024/01/26 04:40:19;;;;;;;17.42;3.42;;;;;;;3.69;60.41;95627.69;5058308;28;20036;-78
2024/01/26 04:42:44;;;;;;;14.65;3.72;;;;;;;3.69;60.07;95640.78;5042068;28;20062;-78
2024/01/26 04:45:10;;;;;;;20.02;3.10;;;;;;;3.09;60.25;95532.34;5058695;28;20508;-79
2024/01/26 04:47:35;;;;;;;12.23;3.17;;;;;;;3.84;59.89;95670.09;5075194;28;20525;-77
2024/01/26 04:50:01;;;;;;;14.65;2.95;;;;;;;3.71;60.13;95645.81;5076532;28;20039;-80
2024/01/26 04:52:27;;;;;;;13.23;2.85;;;;;;;3.13;59.88;95532.72;5041306;28;20112;-77
2024/01/26 04:54:52;;;;;;;17.92;2.95;;;;;;;3.68;59.86;95673.28;5054932;28;20043;-77
2024/01/26 04:57:18;;;;;;;10.82;2.63;;;;;;;3.31;60.25;95598.25;5051515;28;20044;-78
2024/01/26 04:59:44;;;;;;;13.95;3.50;;;;;;;3.74;60.50;95672.41;5053953;28;20036;-79
2024/01/26 05:02:09;;;;;;;12.45;2.80;;;;;;;3.62;60.42;95657.63;5053472;28;20046;-78
2024/01/26 05:04:35;;;;;;;15.55;3.63;;;;;;;3.17;59.84;95583.69;5051789;28;20439;-77
2024/01/26 05:07:00;;;;;;;10.07;2.80;;;;;;;3.71;60.42;95664.19;5031972;28;20071;-79
2024/01/26 05:09:26;;;;;;;6.50;2.30;;;;;;;3.81;60.13;95672.34;5052017;28;20094;-79
2024/01/26 05:11:52;;;;;;;15.05;3.47;;;;;;;3.30;60.20;95586.16;5064400;28;20032;-78
2024/01/26 05:14:17;;;;;;;9.27;2.90;;;;;;;3.29;60.32;95608.13;5041948;28;20105;-78
2024/01/26 05:16:43;;;;;;;13.13;2.33;;;;;;;2.93;59.87;95544.19;5060919;28;20074;-78
2024/01/26 05:19:08;;;;;;;13.98;3.17;;;;;;;3.70;60.43;95687.00;5047774;28;20531;-78
2024/01/26 05:21:34;;;;;;;11.48;2.70;;;;;;;3.07;60.14;95584.97;5050744;28;20043;-80
2024/01/26 05:24:00;;;;;;;10.70;3.40;;;;;;;3.57;60.59;95645.19;5029722;28;20119;-80
2024/01/26 05:26:25;;;;;;;12.90;3.20;;;;;;;3.35;60.53;95633.50;4997977;28;20508;-81
2024/01/26 05:28:51;;;;;;;9.05;3.00;;;;;;;3.69;60.63;95669.66;5021283;28;20143;-81
2024/01/26 05:31:17;;;;;;;13.95;3.15;;;;;;;3.38;60.95;95644.34;5057046;28;20036;-80
2024/01/26 05:33:43;;;;;;;18.75;3.28;;;;;;;3.22;60.86;95620.50;5011980;28;20033;-81
2024/01/26 05:36:08;;;;;;;9.40;3.28;;;;;;;3.01;60.35;95585.84;5032433;28;20044;-80
2024/01/26 05:38:34;;;;;;;11.70;3.55;;;;;;;3.62;60.94;95686.47;5023688;28;20041;-81
2024/01/26 05:40:59;;;;;;;13.60;3.25;;;;;;;3.64;60.05;95693.13;5034816;28;20179;-80
2024/01/26 05:43:25;;;;;;;14.40;3.17;;;;;;;3.52;60.68;95681.72;5039417;28;20028;-80
2024/01/26 05:45:51;;;;;;;8.60;2.80;;;;;;;3.13;60.10;95653.28;5043917;28;20064;-80
2024/01/26 05:48:16;;;;;;;19.98;3.42;;;;;;;3.56;60.53;95711.75;5017538;28;20040;-81
2024/01/26 05:50:42;;;;;;;18.48;3.70;;;;;;;3.57;60.91;95686.34;5023667;28;20384;-82
2024/01/26 05:53:07;;;;;;;9.43;2.65;;;;;;;3.02;60.47;95610.22;5016563;28;20516;-81
2024/01/26 05:55:33;;;;;;;15.98;3.33;;;;;;;3.56;60.93;95692.59;5007672;28;20138;-81
2024/01/26 05:57:58;;;;;;;15.50;3.22;;;;;;;3.04;60.24;95650.13;5024927;28;20701;-81
2024/01/26 06:00:24;;;;;;;11.32;2.85;;;;;;;3.21;59.86;95638.06;5018611;28;20122;-81
2024/01/26 06:02:49;;;;;;;16.02;3.88;;;;;;;3.30;60.19;95665.59;5018978;28;20243;-82
2024/01/26 06:05:15;;;;;;;13.48;3.53;;;;;;;3.55;60.23;95711.97;5004658;28;20076;-81
2024/01/26 06:07:41;;;;;;;8.30;2.95;;;;;;;3.47;60.34;95663.22;5001518;28;20182;-81
2024/01/26 06:10:07;;;;;;;13.15;3.53;;;;;;;3.29;60.52;95663.19;5032315;28;20091;-81
2024/01/26 06:12:33;;;;;;;13.45;3.08;;;;;;;2.90;60.59;95612.72;5012079;28;20076;-81
2024/01/26 06:14:58;;;;;;;13.90;3.28;;;;;;;3.46;60.84;95699.13;5014520;28;20138;-81
2024/01/26 06:17:24;;;;;;;10.40;2.67;;;;;;;2.90;60.60;95622.44;5017466;28;20109;-81
2024/01/26 06:19:52;;;;;;;9.80;3.63;;;;;;;3.20;60.89;95662.69;5036850;28;20051;-81
2024/01/26 06:22:18;;;;;;;10.15;2.60;;;;;;;2.94;60.57;95624.41;5030350;28;20188;-81
2024/01/26 06:24:43;;;;;;;19.25;3.67;;;;;;;2.95;60.56;95625.19;5012010;28;20063;-81
2024/01/26 06:27:09;;;;;;;18.50;3.88;;;;;;;3.12;60.52;95657.72;5007949;28;20147;-80
2024/01/26 06:29:34;;;;;;;11.88;2.88;;;;;;;3.49;60.75;95711.00;5023742;28;20587;-81
2024/01/26 06:32:00;;;;;;;12.88;2.67;;;;;;;3.33;60.36;95680.91;5003169;28;20049;-82
2024/01/26 06:34:26;;;;;;;13.25;2.85;;;;;;;3.16;60.61;95643.16;4991558;28;20178;-81
2024/01/26 06:36:51;;;;;;;9.90;4.00;;;;;;;2.86;60.67;95608.16;5027955;28;20904;-80
2024/01/26 06:39:17;;;;;;;12.05;3.92;;;;;;;3.55;60.53;95710.16;5008912;28;20142;-81
2024/01/26 06:41:42;;;;;;;12.88;3.33;;;;;;;3.34;60.36;95684.34;5030406;28;20042;-81
2024/01/26 06:44:08;;;;;;;16.15;3.78;;;;;;;3.31;60.69;95688.19;5026699;28;20096;-81
2024/01/26 06:46:34;;;;;;;11.63;2.65;;;;;;;3.58;60.13;95774.50;5012359;28;20052;-80
2024/01/26 06:49:01;;;;;;;13.82;3.38;;;;;;;3.46;60.03;95712.25;5012328;28;20032;-80
2024/01/26 06:51:27;;;;;;;10.85;3.50;;;;;;;2.93;60.23;95628.03;5024491;28;20051;-80
2024/01/26 06:53:53;;;;;;;14.27;2.97;;;;;;;3.66;60.32;95745.38;5004587;28;20033;-81
2024/01/26 06:56:18;;;;;;;11.93;3.22;;;;;;;2.90;59.48;95617.97;5015272;28;20037;-81
2024/01/26 06:58:45;;;;;;;13.48;3.75;;;;;;;3.65;59.61;95780.47;5024843;28;20056;-81
2024/01/26 07:01:11;;;;;;;11.95;3.15;;;;;;;3.47;60.01;95724.34;5029599;28;20047;-79
2024/01/26 07:03:36;;;;;;;11.98;3.08;;;;;;;3.66;59.83;95735.66;5010053;28;20093;-79
2024/01/26 07:06:02;;;;;;;12.65;3.28;;;;;;;3.37;59.87;95715.34;5021636;28;20095;-79
2024/01/26 07:08:28;;;;;;;17.75;3.40;;;;;;;3.03;59.19;95646.69;5023916;28;20367;-79
2024/01/26 07:10:53;;;;;;;8.82;3.63;;;;;;;2.96;59.23;95624.19;5017515;28;20132;-82
2024/01/26 07:13:21;;;;;;;8.88;2.40;;;;;;;3.61;58.57;95737.31;5007579;28;20083;-80
2024/01/26 07:15:46;;;;;;;9.50;2.92;;;;;;;3.09;59.10;95676.47;5007563;28;20048;-80
2024/01/26 07:18:12;;;;;;;21.95;3.78;;;;;;;3.49;58.71;95732.00;5031585;28;20168;-79
2024/01/26 07:20:38;;;;;;;14.10;2.35;;;;;;;3.63;58.93;95733.47;5023707;28;20066;-81
2024/01/26 07:23:03;;;;;;;19.13;2.70;;;;;;;3.75;58.64;95746.66;5004208;28;20064;-81
2024/01/26 07:25:30;;;;;;;19.15;3.20;;;;;;;2.10;59.27;95480.09;4999001;28;20256;-81
2024/01/26 07:27:56;;;;;;;13.65;3.25;;;;;;;3.42;58.60;95707.66;5012166;28;20044;-82
2024/01/26 07:30:21;;;;;;;10.70;3.08;;;;;;;3.71;58.60;95761.25;5019245;28;20082;-82
2024/01/26 07:32:47;;;;;;;19.75;2.60;;;;;;;3.84;58.27;95787.34;5023793;28;20058;-81
2024/01/26 07:35:13;;;;;;;17.70;3.40;;;;;;;3.68;58.22;95770.34;5011919;28;20041;-81
2024/01/26 07:37:39;;;;;;;14.63;3.13;;;;;;;3.47;58.25;95724.34;5028747;28;20052;-79
2024/01/26 07:40:06;;;;;;;8.50;2.75;;;;;;;3.86;57.77;95780.88;5035126;28;20127;-82
2024/01/26 07:42:31;;;;;;;7.47;2.70;;;;;;;3.88;57.96;95768.34;5051376;28;20047;-78
2024/01/26 07:44:57;;;;;;;16.27;2.70;;;;;;;3.56;57.75;95727.50;5019114;28;20036;-79
2024/01/26 07:47:23;;;;;;;8.65;3.17;;;;;;;3.76;57.85;95767.44;5010426;28;20044;-80
2024/01/26 07:49:49;;;;;;;12.50;2.67;;;;;;;3.31;58.10;95687.38;5042236;28;20133;-80
2024/01/26 07:52:15;;;;;;;12.15;3.05;;;;;;;3.95;57.87;95807.66;5050895;28;20048;-79
2024/01/26 07:54:40;;;;;;;6.15;2.25;;;;;;;3.64;57.89;95752.63;5007937;28;20033;-80
2024/01/26 07:57:06;;;;;;;13.15;2.65;;;;;;;3.23;57.54;95704.16;5037774;28;20059;-79
2024/01/26 07:59:32;;;;;;;10.98;2.67;;;;;;;4.00;57.38;95786.00;5023873;28;20171;-78
2024/01/26 08:01:57;;;;;;;17.35;3.45;;;;;;;3.98;57.78;95799.31;5031550;28;20221;-78
2024/01/26 08:04:23;;;;;;;12.05;2.72;;;;;;;3.82;57.65;95777.06;5031342;28;20056;-79
2024/01/26 08:06:48;;;;;;;15.35;3.08;;;;;;;3.94;57.47;95803.41;5040110;28;20068;-79
2024/01/26 08:09:15;;;;;;;9.07;2.67;;;;;;;3.53;57.65;95727.91;5018276;28;20084;-76
2024/01/26 08:11:40;;;;;;;22.75;2.90;;;;;;;3.84;57.33;95788.16;5026088;28;20618;-81
2024/01/26 08:14:09;;;;;;;9.52;2.88;;;;;;;3.55;57.89;95728.50;5037174;28;20127;-80
2024/01/26 08:16:35;;;;;;;9.88;3.38;;;;;;;3.82;58.04;95803.31;5038471;28;20040;-81
2024/01/26 08:19:01;;;;;;;10.63;2.95;;;;;;;3.25;58.15;95689.03;5056656;28;20044;-81
2024/01/26 08:21:27;;;;;;;17.25;3.15;;;;;;;3.80;58.51;95770.44;5028925;28;20089;-81
2024/01/26 08:23:53;;;;;;;9.18;2.60;;;;;;;3.86;57.64;95780.88;5052193;28;20028;-79
2024/01/26 08:26:18;;;;;;;19.20;3.20;;;;;;;3.73;58.20;95762.66;5028498;28;20080;-81
2024/01/26 08:28:46;;;;;;;12.07;3.40;;;;;;;4.13;57.73;95818.16;5039042;28;20830;-80
2024/01/26 08:31:12;;;;;;;14.07;3.15;;;;;;;3.99;58.18;95832.44;5030731;28;20131;-79
2024/01/26 08:33:38;;;;;;;13.65;3.20;;;;;;;3.65;58.05;95741.94;5026628;28;20721;-79
2024/01/26 08:36:03;;;;;;;10.82;3.30;;;;;;;3.69;57.67;95729.97;5043955;28;20697;-81
2024/01/26 08:38:29;;;;;;;13.52;2.80;;;;;;;4.16;57.69;95803.78;5022760;28;20047;-79
2024/01/26 08:40:55;;;;;;;10.73;2.55;;;;;;;4.00;57.68;95799.13;5025623;28;20146;-79
2024/01/26 08:43:20;;;;;;;17.85;3.15;;;;;;;2.83;58.07;95592.84;5041130;28;20128;-79
2024/01/26 08:45:46;;;;;;;12.52;2.78;;;;;;;2.56;58.25;95553.00;5037335;28;20400;-79
2024/01/26 08:48:13;;;;;;;9.55;2.40;;;;;;;1.86;57.54;95460.75;5054022;28;20055;-81
2024/01/26 08:50:39;;;;;;;5.57;2.78;;;;;;;2.45;57.70;95598.19;5017962;28;20363;-81
2024/01/26 08:53:06;;;;;;;10.13;2.72;;;;;;;4.09;58.21;95824.88;5020814;28;20048;-79
2024/01/26 08:55:32;;;;;;;9.23;3.00;;;;;;;3.14;57.63;95670.56;5028502;28;20055;-78
2024/01/26 08:57:58;;;;;;;10.07;2.63;;;;;;;3.56;58.09;95713.56;5028818;28;20040;-80
2024/01/26 09:00:23;;;;;;;12.73;3.80;;;;;;;2.36;57.96;95513.09;5036588;28;20056;-80
2024/01/26 09:02:49;;;;;;;13.25;3.47;;;;;;;3.74;57.78;95731.94;5059189;28;20055;-80
2024/01/26 09:05:15;;;;;;;10.07;2.70;;;;;;;4.01;57.85;95835.66;5026618;28;20062;-80
2024/01/26 09:07:40;;;;;;;11.95;3.47;;;;;;;3.60;57.95;95741.75;5044554;28;20040;-82
2024/01/26 09:10:06;;;;;;;11.07;3.03;;;;;;;3.96;57.14;95801.38;5031953;28;20040;-80
2024/01/26 09:12:32;;;;;;;12.50;2.63;;;;;;;3.65;57.72;95754.25;5024939;28;20285;-80
2024/01/26 09:14:58;;;;;;;7.35;2.88;;;;;;;3.73;57.30;95786.25;5053261;28;20052;-80
2024/01/26 09:17:24;;;;;;;10.43;3.40;;;;;;;3.63;57.53;95772.81;5023034;28;20088;-80
2024/01/26 09:19:49;;;;;;;10.40;2.83;;;;;;;3.95;57.41;95806.84;5040535;28;20040;-80
2024/01/26 09:22:15;;;;;;;9.98;2.30;;;;;;;3.27;57.34;95684.41;5040368;28;20505;-81
2024/01/26 09:24:41;;;;;;;9.70;4.43;;;;;;;3.97;57.46;95799.56;5026960;28;20049;-82
2024/01/26 09:27:06;;;;;;;7.72;2.55;;;;;;;3.69;57.42;95750.16;5019805;28;20048;-82
2024/01/26 09:29:32;;;;;;;13.25;3.22;;;;;;;3.39;57.06;95713.31;5049774;28;20040;-81
2024/01/26 09:31:59;;;;;;;8.43;2.67;;;;;;;4.13;57.03;95822.59;5034806;28;20403;-81
2024/01/26 09:34:25;;;;;;;12.52;2.45;;;;;;;4.16;57.42;95817.72;5057267;28;20046;-83
2024/01/26 09:36:51;;;;;;;8.50;2.75;;;;;;;3.77;57.58;95744.63;5047046;28;20107;-82
2024/01/26 09:39:17;;;;;;;6.00;2.45;;;;;;;3.91;56.82;95740.06;5053502;28;20191;-81
2024/01/26 09:41:42;;;;;;;6.97;2.47;;;;;;;4.29;56.63;95811.53;5033116;28;20064;-81
2024/01/26 09:44:08;;;;;;;13.45;3.00;;;;;;;4.27;57.21;95826.72;5045508;28;20036;-81
2024/01/26 09:46:33;;;;;;;12.10;2.97;;;;;;;4.20;57.10;95810.19;5041077;28;20040;-79
2024/01/26 09:48:59;;;;;;;14.50;2.83;;;;;;;4.10;56.32;95758.22;5047359;28;20095;-79
2024/01/26 09:51:28;;;;;;;11.25;3.20;;;;;;;4.44;56.49;95803.28;5020946;28;20048;-81
2024/01/26 09:53:59;;;;;;;10.35;2.33;;;;;;;4.18;55.86;95773.69;5044209;28;20040;-79
2024/01/26 09:56:26;;;;;;;13.43;2.60;;;;;;;3.62;56.09;95675.97;5037656;28;20045;-80
2024/01/26 09:58:52;;;;;;;10.95;3.10;;;;;;;3.91;56.19;95719.06;5051848;28;20040;-80
2024/01/26 10:01:20;;;;;;;8.95;2.53;;;;;;;3.31;55.96;95663.78;5058231;28;20081;-80
2024/01/26 10:03:46;;;;;;;7.72;2.72;;;;;;;4.33;55.75;95783.03;5031885;28;20037;-81
2024/01/26 10:06:11;;;;;;;9.95;3.00;;;;;;;4.09;56.50;95719.06;5021631;28;20042;-81
2024/01/26 10:08:40;;;;;;;10.50;2.92;;;;;;;4.42;56.16;95732.63;5018432;28;20069;-80
2024/01/26 10:11:06;;;;;;;16.27;3.42;;;;;;;4.71;55.64;95770.44;5026471;28;20536;-80
2024/01/26 10:13:31;;;;;;;13.43;2.90;;;;;;;4.72;55.29;95792.25;5034829;28;20143;-80
2024/01/26 10:16:08;;;;;;;4.35;2.50;;;;;;;4.61;55.19;95805.09;5043664;28;20096;-81
2024/01/26 10:18:52;;;;;;;10.52;3.17;;;;;;;4.53;55.67;95749.44;5035715;28;20121;-83
2024/01/26 10:21:20;;;;;;;11.00;2.35;;;;;;;4.34;55.67;95719.78;5045849;28;20055;-81
2024/01/26 10:23:46;;;;;;;11.30;2.33;;;;;;;4.80;55.30;95771.72;5022322;28;20488;-81
2024/01/26 10:26:30;;;;;;;13.70;3.45;;;;;;;4.93;53.46;95702.41;5058383;28;20047;-82
2024/01/26 10:28:56;;;;;;;10.00;3.25;;;;;;;5.55;52.58;95718.59;5039489;28;20684;-80
2024/01/26 10:31:22;;;;;;;10.27;3.42;;;;;;;6.27;49.96;95741.00;5028727;28;20076;-78
2024/01/26 10:33:47;;;;;;;10.20;2.78;;;;;;;6.61;48.90;95702.41;5043212;28;20047;-80
2024/01/26 10:36:13;;;;;;;8.10;3.00;;;;;;;6.69;48.13;95712.56;5026028;28;20040;-80
2024/01/26 10:38:39;;;;;;;10.43;3.60;;;;;;;7.12;47.27;95746.28;5056117;28;20045;-80
2024/01/26 10:41:05;;;;;;;10.45;2.22;;;;;;;6.33;46.82;95649.72;5031432;28;20041;-81
2024/01/26 10:43:31;;;;;;;9.55;2.72;;;;;;;7.25;46.16;95737.25;5027751;28;20136;-81
2024/01/26 10:45:59;;;;;;;9.10;2.88;;;;;;;7.39;45.78;95809.03;5060274;28;20086;-80
2024/01/26 10:48:25;;;;;;;8.70;2.72;;;;;;;6.71;46.28;95694.69;5046102;28;20440;-81
2024/01/26 10:50:50;;;;;;;10.30;3.03;;;;;;;6.59;46.28;95657.84;5039080;28;20421;-82
2024/01/26 10:53:17;;;;;;;13.80;3.40;;;;;;;7.15;45.84;95747.66;5029656;28;20061;-83
2024/01/26 10:55:42;;;;;;;10.70;2.90;;;;;;;6.88;45.94;95690.22;5029090;28;20055;-84
2024/01/26 10:58:08;;;;;;;8.05;2.70;;;;;;;7.24;45.62;95691.66;5032597;28;20127;-81
2024/01/26 11:00:34;;;;;;;11.52;3.40;;;;;;;7.04;46.10;95687.84;5045610;28;20382;-81
2024/01/26 11:02:59;;;;;;;6.47;2.30;;;;;;;7.03;45.69;95716.06;5036764;28;20051;-84
2024/01/26 11:05:25;;;;;;;13.35;3.17;;;;;;;6.64;46.11;95704.56;5055279;28;20048;-85
2024/01/26 11:07:51;;;;;;;8.70;2.25;;;;;;;6.64;46.67;95656.34;5049516;28;20068;-80
2024/01/26 11:10:20;;;;;;;7.07;2.50;;;;;;;7.06;45.97;95733.25;5018314;28;20041;-82
2024/01/26 11:12:46;;;;;;;8.63;2.80;;;;;;;6.53;46.63;95705.41;5047958;28;20044;-83
2024/01/26 11:15:16;;;;;;;11.13;3.25;;;;;;;6.37;46.83;95659.53;5046099;28;20040;-83
2024/01/26 11:17:56;;;;;;;22.30;2.80;;;;;;;6.42;46.97;95645.66;5030825;28;20072;-82
2024/01/26 11:20:25;;;;;;;8.90;2.53;;;;;;;6.88;46.79;95761.41;5039594;28;20520;-81
2024/01/26 11:22:59;;;;;;;4.80;2.25;;;;;;;6.28;47.64;95623.25;5056337;28;20141;-81
2024/01/26 11:25:25;;;;;;;8.18;3.00;;;;;;;6.70;45.79;95690.47;5015881;28;20438;-83
2024/01/26 11:27:58;;;;;;;12.18;2.92;;;;;;;5.56;47.37;95502.66;5036450;28;20060;-82
2024/01/26 11:30:25;;;;;;;9.90;3.20;;;;;;;6.22;47.67;95653.97;5019512;28;20145;-82